Bennington, IN (47011)

10:16 PM EST on February 05, 2016 (GMT -0500)
APRSWXNET | | Change Station
CLOSE
Current Station
Personal Weather Station
Location: Cross Plains, IN
Elevation: 639 ft
Nearby Weather Stations

Elev 639 ft 38.97 °N, 85.15 °W | Updated 57 minutes ago

Partly Cloudy
Partly Cloudy
28 °F
Feels Like 28 °F
N
0
Wind Variable Wind from North
Gusts 4.0 mph

Today
High -- | Low -- °F
--% Chance of Precip.
Yesterday
High -- | Low -- °F
Precip. -- in
Pressure 30.34 in
Visibility 10.0 miles
Clouds Few 6000 ft
Scattered Clouds 23000 ft
Windchill 28 °F
Dew Point 24 °F
Humidity 86%
Rainfall in
Snow Depth Not available.
7:43 AM 6:05 PM
Waning Crescent, 8% visible
METAR KCVG 060252Z 19006KT 10SM FEW060 SCT230 00/M07 A3032 RMK AO2 SLP274 T00001072 57010 $
Pressure 30.34 in
Visibility 10.0 miles
Clouds Few 6000 ft
Scattered Clouds 23000 ft
Windchill 28 °F
Dew Point 24 °F
Humidity 86%
Rainfall in
Snow Depth Not available.
7:43 AM 6:05 PM
Waning Crescent, 8% visible
METAR KCVG 060252Z 19006KT 10SM FEW060 SCT230 00/M07 A3032 RMK AO2 SLP274 T00001072 57010 $

10-Day Weather Forecast

Almanac

Astronomy

Feb. 05, 2016 Rise Set
Actual Time
Civil Twilight
Nautical Twilight
Astronomical Twilight
Moon
Length of Visible Light
Length of Day
Tomorrow will be .
, % of the Moon is Illuminated

Today's Extremes

State Highs State Lows

Community

WunderPhotos

Upload Photos

1,890,915 photos uploaded!

WunderBlog® & News

Nearby

Air Quality

  Air Quality AQ Index Pollutant
Not available.

Snow Depth

Station Depth Elevation

Earthquake Activity

City Distance Mag. Time & Date
Minimum magnitude displayed is 2.5.

Coastal Water Temperatures

Place Temperature

Stations

Nearby Weather Stations

Station Location Temp. Windchill Dew Point Humidity Wind Precip. Elev Updated Type
                   

Watches & Warnings

There are currently no watches in effect.